Time,TemperatureF,DewpointF,PressureIn,WindDirection,WindDirectionDegrees,WindSpeedMPH,WindSpeedGustMPH,Humidity,HourlyPrecipIn,Conditions,Clouds,dailyrainin,SoftwareType,DateUTC
2013-02-22 00:00:00,40.0,36.4,30.21,South,180,1.0,7.0,87,0.13,,,-99.99,WeatherLink 6.0.0,2013-02-22 05:00:00,
2013-02-22 00:13:00,39.9,36.6,30.20,South,182,0.0,0.0,88,0.18,,,0.04,Wunderground v.1.15,2013-02-22 05:13:00,
2013-02-22 00:19:00,39.7,36.7,30.21,South,182,0.0,0.0,89,0.09,,,0.05,Wunderground v.1.15,2013-02-22 05:19:00,
2013-02-22 00:24:00,39.6,36.9,30.21,South,182,0.0,0.0,90,0.13,,,0.06,Wunderground v.1.15,2013-02-22 05:24:00,
2013-02-22 00:30:00,39.5,37.1,30.21,South,182,0.0,0.0,91,0.08,,,0.06,Wunderground v.1.15,2013-02-22 05:30:00,
2013-02-22 00:35:00,39.8,37.7,30.21,South,183,1.0,1.0,92,0.05,,,0.07,Wunderground v.1.15,2013-02-22 05:35:00,
2013-02-22 00:41:00,39.5,37.1,30.21,NE,49,0.0,0.0,91,0.05,,,0.07,Wunderground v.1.15,2013-02-22 05:41:00,
2013-02-22 00:46:00,39.2,36.8,30.22,NE,49,0.0,0.0,91,0.05,,,0.07,Wunderground v.1.15,2013-02-22 05:46:00,
2013-02-22 00:52:00,38.8,36.4,30.21,NE,49,0.0,0.0,91,0.00,,,0.07,Wunderground v.1.15,2013-02-22 05:52:00,
2013-02-22 00:57:00,38.5,36.1,30.20,NE,54,0.0,0.0,91,0.00,,,0.08,Wunderground v.1.15,2013-02-22 05:57:00,
2013-02-22 01:03:00,38.4,36.0,30.20,NE,45,0.0,2.0,91,0.09,,,-99.99,WeatherLink 6.0.0,2013-02-22 06:03:00,
2013-02-22 01:09:00,38.2,36.1,30.20,NE,55,0.0,1.0,92,0.08,,,0.10,Wunderground v.1.15,2013-02-22 06:09:00,
2013-02-22 01:14:00,38.0,36.2,30.21,NE,55,0.0,0.0,93,0.08,,,0.10,Wunderground v.1.15,2013-02-22 06:14:00,
2013-02-22 01:20:00,38.0,36.2,30.22,NE,55,0.0,0.0,93,0.05,,,0.11,Wunderground v.1.15,2013-02-22 06:20:00,
2013-02-22 01:26:00,38.3,36.7,30.23,NE,55,0.0,0.0,94,0.05,,,0.11,Wunderground v.1.15,2013-02-22 06:26:00,
2013-02-22 01:31:00,38.1,36.3,30.23,NE,55,0.0,0.0,93,0.08,,,0.12,Wunderground v.1.15,2013-02-22 06:31:00,
2013-02-22 01:36:00,37.8,36.0,30.24,NE,54,0.0,1.0,93,0.07,,,0.13,Wunderground v.1.15,2013-02-22 06:36:00,
2013-02-22 01:42:00,37.7,36.1,30.24,NE,54,0.0,1.0,94,0.12,,,0.14,Wunderground v.1.15,2013-02-22 06:42:00,
2013-02-22 01:47:00,37.7,36.1,30.24,NE,54,0.0,1.0,94,0.09,,,0.14,Wunderground v.1.15,2013-02-22 06:47:00,
2013-02-22 01:53:00,37.4,35.8,30.24,NE,53,0.0,0.0,94,0.07,,,0.15,Wunderground v.1.15,2013-02-22 06:53:00,
2013-02-22 01:58:00,37.2,35.6,30.24,NE,53,0.0,0.0,94,0.07,,,0.15,Wunderground v.1.15,2013-02-22 06:58:00,
2013-02-22 02:03:00,37.0,35.4,30.23,NE,54,0.0,0.0,94,0.06,,,0.16,Wunderground v.1.15,2013-02-22 07:03:00,
2013-02-22 02:08:00,36.8,35.2,30.23,NE,53,0.0,0.0,94,0.06,,,0.16,Wunderground v.1.15,2013-02-22 07:08:00,
2013-02-22 02:13:00,36.6,35.0,30.23,NE,54,0.0,0.0,94,0.06,,,0.17,Wunderground v.1.15,2013-02-22 07:13:00,
2013-02-22 02:18:00,36.5,36.5,30.23,NE,54,0.0,0.0,100,0.08,,,0.18,Wunderground v.1.15,2013-02-22 07:18:00,
2013-02-22 02:23:00,37.2,35.9,30.23,NE,54,0.0,0.0,95,0.08,,,0.18,Wunderground v.1.15,2013-02-22 07:23:00,
2013-02-22 02:28:00,37.2,35.9,30.23,NE,54,0.0,0.0,95,0.05,,,0.18,Wunderground v.1.15,2013-02-22 07:28:00,
2013-02-22 02:33:00,36.8,35.2,30.23,NE,54,0.0,0.0,94,0.05,,,0.19,Wunderground v.1.15,2013-02-22 07:33:00,
2013-02-22 02:38:00,36.5,34.9,30.22,NE,53,1.0,1.0,94,0.09,,,0.20,Wunderground v.1.15,2013-02-22 07:38:00,
2013-02-22 02:43:00,36.1,34.5,30.21,NE,55,0.0,1.0,94,0.09,,,0.21,Wunderground v.1.15,2013-02-22 07:43:00,
2013-02-22 02:48:00,35.9,34.3,30.21,NE,54,1.0,1.0,94,0.09,,,0.21,Wunderground v.1.15,2013-02-22 07:48:00,
2013-02-22 02:53:00,36.0,34.7,30.21,NNE,14,2.0,2.0,95,0.11,,,0.22,Wunderground v.1.15,2013-02-22 07:53:00,
2013-02-22 02:58:00,36.2,34.9,30.23,NNE,30,0.0,4.0,95,0.10,,,0.23,Wunderground v.1.15,2013-02-22 07:58:00,
2013-02-22 03:00:00,36.1,34.8,30.23,NNE,22,0.0,4.0,95,0.07,,,-99.99,WeatherLink 6.0.0,2013-02-22 08:00:00,
2013-02-22 03:03:00,36.1,34.8,30.22,NNW,333,0.0,2.0,95,0.07,,,0.23,Wunderground v.1.15,2013-02-22 08:03:00,
2013-02-22 03:08:00,36.0,34.7,30.20,NNW,334,1.0,2.0,95,0.05,,,0.24,Wunderground v.1.15,2013-02-22 08:08:00,
2013-02-22 03:13:00,35.8,34.5,30.21,NNW,334,0.0,1.0,95,0.05,,,0.24,Wunderground v.1.15,2013-02-22 08:13:00,
2013-02-22 03:18:00,35.6,34.3,30.20,NNW,337,0.0,2.0,95,0.05,,,0.24,Wunderground v.1.15,2013-02-22 08:18:00,
2013-02-22 03:23:00,35.6,34.3,30.18,ESE,120,1.0,5.0,95,0.00,,,0.24,Wunderground v.1.15,2013-02-22 08:23:00,
2013-02-22 03:28:00,35.5,34.2,30.18,SE,131,0.0,5.0,95,0.00,,,0.24,Wunderground v.1.15,2013-02-22 08:28:00,
2013-02-22 03:30:00,35.6,34.3,30.19,NNW,337,1.0,5.0,95,0.05,,,-99.99,WeatherLink 6.0.0,2013-02-22 08:30:00,
2013-02-22 03:33:00,35.9,34.9,30.19,SE,131,0.0,1.0,96,0.00,,,0.24,Wunderground v.1.15,2013-02-22 08:33:00,
2013-02-22 03:38:00,36.0,35.0,30.19,SE,131,0.0,1.0,96,0.00,,,0.24,Wunderground v.1.15,2013-02-22 08:38:00,
2013-02-22 03:43:00,35.9,34.9,30.19,SE,131,0.0,0.0,96,0.00,,,0.25,Wunderground v.1.15,2013-02-22 08:43:00,
2013-02-22 03:48:00,36.0,35.0,30.20,SE,130,0.0,1.0,96,0.00,,,0.25,Wunderground v.1.15,2013-02-22 08:48:00,
2013-02-22 03:53:00,36.4,35.4,30.20,SE,131,0.0,1.0,96,0.00,,,0.25,Wunderground v.1.15,2013-02-22 08:53:00,
2013-02-22 03:58:00,36.6,35.6,30.20,SE,131,0.0,1.0,96,0.00,,,0.25,Wunderground v.1.15,2013-02-22 08:58:00,
2013-02-22 04:03:00,36.7,35.7,30.20,SE,125,0.0,2.0,96,0.00,,,0.25,Wunderground v.1.15,2013-02-22 09:03:00,
2013-02-22 04:08:00,36.7,35.7,30.19,SE,125,1.0,2.0,96,0.00,,,0.25,Wunderground v.1.15,2013-02-22 09:08:00,
2013-02-22 04:13:00,36.4,35.4,30.18,SE,125,0.0,1.0,96,0.00,,,0.25,Wunderground v.1.15,2013-02-22 09:13:00,
2013-02-22 04:18:00,35.9,34.9,30.18,SE,125,0.0,2.0,96,0.00,,,0.25,Wunderground v.1.15,2013-02-22 09:18:00,
2013-02-22 04:23:00,35.7,34.4,30.18,SE,125,0.0,1.0,95,0.00,,,0.25,Wunderground v.1.15,2013-02-22 09:23:00,
2013-02-22 04:28:00,35.6,34.6,30.18,SE,125,0.0,1.0,96,0.00,,,0.25,Wunderground v.1.15,2013-02-22 09:28:00,
2013-02-22 04:34:00,35.8,34.8,30.17,SE,125,0.0,1.0,96,0.00,,,0.26,Wunderground v.1.15,2013-02-22 09:34:00,
2013-02-22 04:39:00,36.0,35.0,30.17,SE,125,0.0,1.0,96,0.00,,,0.26,Wunderground v.1.15,2013-02-22 09:39:00,
2013-02-22 04:44:00,35.9,34.9,30.17,SE,125,0.0,1.0,96,0.00,,,0.26,Wunderground v.1.15,2013-02-22 09:44:00,
2013-02-22 04:49:00,35.7,34.7,30.18,SE,125,0.0,1.0,96,0.00,,,0.26,Wunderground v.1.15,2013-02-22 09:49:00,
2013-02-22 04:54:00,35.7,34.7,30.20,SE,125,0.0,2.0,96,0.00,,,0.26,Wunderground v.1.15,2013-02-22 09:54:00,
2013-02-22 04:59:00,35.9,34.9,30.21,SE,125,1.0,2.0,96,0.00,,,0.26,Wunderground v.1.15,2013-02-22 09:59:00,
2013-02-22 05:04:00,36.0,35.0,30.21,SE,126,0.0,1.0,96,0.00,,,0.27,Wunderground v.1.15,2013-02-22 10:04:00,
2013-02-22 05:09:00,36.1,35.1,30.22,SE,126,0.0,1.0,96,0.00,,,0.27,Wunderground v.1.15,2013-02-22 10:09:00,
2013-02-22 05:14:00,36.0,35.0,30.20,SE,126,0.0,1.0,96,0.06,,,0.27,Wunderground v.1.15,2013-02-22 10:14:00,
2013-02-22 05:19:00,35.8,34.8,30.19,SE,126,0.0,1.0,96,0.06,,,0.28,Wunderground v.1.15,2013-02-22 10:19:00,
2013-02-22 05:24:00,35.6,34.6,30.20,SE,126,0.0,0.0,96,0.06,,,0.28,Wunderground v.1.15,2013-02-22 10:24:00,
2013-02-22 05:29:00,35.7,34.7,30.19,SE,126,0.0,1.0,96,0.05,,,0.29,Wunderground v.1.15,2013-02-22 10:29:00,
2013-02-22 05:34:00,35.8,34.8,30.20,SE,126,0.0,0.0,96,0.05,,,0.29,Wunderground v.1.15,2013-02-22 10:34:00,
2013-02-22 05:39:00,35.8,34.8,30.20,SE,126,0.0,0.0,96,0.07,,,0.30,Wunderground v.1.15,2013-02-22 10:39:00,
2013-02-22 05:44:00,35.8,34.8,30.20,SE,126,0.0,0.0,96,0.06,,,0.30,Wunderground v.1.15,2013-02-22 10:44:00,
2013-02-22 05:49:00,35.9,34.9,30.21,SE,126,0.0,0.0,96,0.04,,,0.30,Wunderground v.1.15,2013-02-22 10:49:00,
2013-02-22 05:54:00,36.1,35.1,30.21,SE,126,0.0,0.0,96,0.00,,,0.30,Wunderground v.1.15,2013-02-22 10:54:00,
2013-02-22 05:59:00,36.4,35.4,30.21,SE,126,0.0,0.0,96,0.00,,,0.30,Wunderground v.1.15,2013-02-22 10:59:00,
2013-02-22 06:04:00,36.2,35.2,30.21,SE,126,0.0,1.0,96,0.00,,,0.30,Wunderground v.1.15,2013-02-22 11:04:00,
2013-02-22 06:09:00,36.0,35.0,30.21,SE,126,0.0,0.0,96,0.00,,,0.30,Wunderground v.1.15,2013-02-22 11:09:00,
2013-02-22 06:14:00,36.2,35.2,30.22,SE,126,0.0,1.0,96,0.00,,,0.31,Wunderground v.1.15,2013-02-22 11:14:00,
2013-02-22 06:19:00,36.0,35.0,30.23,SE,126,0.0,0.0,96,0.00,,,0.31,Wunderground v.1.15,2013-02-22 11:19:00,
2013-02-22 06:24:00,35.9,34.9,30.23,SE,126,0.0,1.0,96,0.00,,,0.31,Wunderground v.1.15,2013-02-22 11:24:00,
2013-02-22 06:29:00,36.1,35.1,30.24,SE,126,0.0,0.0,96,0.00,,,0.31,Wunderground v.1.15,2013-02-22 11:29:00,
2013-02-22 06:34:00,36.2,35.2,30.23,SE,126,0.0,0.0,96,0.00,,,0.31,Wunderground v.1.15,2013-02-22 11:34:00,
2013-02-22 06:40:00,36.1,35.1,30.24,SE,126,0.0,0.0,96,0.00,,,0.31,Wunderground v.1.15,2013-02-22 11:40:00,
2013-02-22 06:44:00,36.1,35.1,30.23,SE,126,0.0,0.0,96,0.00,,,0.32,Wunderground v.1.15,2013-02-22 11:44:00,
2013-02-22 06:49:00,36.2,35.2,30.24,SE,126,0.0,0.0,96,0.00,,,0.32,Wunderground v.1.15,2013-02-22 11:49:00,
2013-02-22 06:55:00,36.3,35.3,30.23,SE,126,0.0,2.0,96,0.00,,,0.32,Wunderground v.1.15,2013-02-22 11:55:00,
2013-02-22 07:00:00,36.1,35.1,30.23,SE,126,0.0,0.0,96,0.00,,,0.32,Wunderground v.1.15,2013-02-22 12:00:00,
2013-02-22 07:05:00,36.1,35.1,30.24,SE,126,0.0,1.0,96,0.00,,,0.32,Wunderground v.1.15,2013-02-22 12:05:00,
2013-02-22 07:10:00,36.0,35.0,30.24,SE,126,0.0,0.0,96,0.00,,,0.32,Wunderground v.1.15,2013-02-22 12:10:00,
2013-02-22 07:15:00,36.4,35.4,30.24,SE,126,0.0,0.0,96,0.00,,,0.32,Wunderground v.1.15,2013-02-22 12:15:00,
2013-02-22 07:20:00,36.5,35.5,30.23,SE,126,0.0,0.0,96,0.00,,,0.32,Wunderground v.1.15,2013-02-22 12:20:00,
2013-02-22 07:25:00,36.3,35.3,30.24,SE,126,0.0,1.0,96,0.00,,,0.32,Wunderground v.1.15,2013-02-22 12:25:00,
2013-02-22 07:30:00,36.2,35.2,30.24,SE,126,0.0,0.0,96,0.00,,,0.32,Wunderground v.1.15,2013-02-22 12:30:00,
2013-02-22 07:35:00,36.0,35.0,30.24,SE,126,0.0,0.0,96,0.00,,,0.32,Wunderground v.1.15,2013-02-22 12:35:00,
2013-02-22 07:40:00,35.9,34.9,30.24,SE,126,0.0,0.0,96,0.00,,,0.32,Wunderground v.1.15,2013-02-22 12:40:00,
2013-02-22 07:45:00,36.0,35.0,30.24,SE,126,0.0,1.0,96,0.00,,,0.32,Wunderground v.1.15,2013-02-22 12:45:00,
2013-02-22 07:50:00,36.1,35.1,30.24,SE,126,0.0,1.0,96,0.00,,,0.32,Wunderground v.1.15,2013-02-22 12:50:00,
2013-02-22 07:55:00,36.4,35.4,30.23,SE,126,1.0,2.0,96,0.00,,,0.32,Wunderground v.1.15,2013-02-22 12:55:00,
2013-02-22 08:00:00,36.5,35.5,30.22,SE,126,0.0,0.0,96,0.00,,,0.32,Wunderground v.1.15,2013-02-22 13:00:00,
2013-02-22 08:05:00,36.7,35.7,30.23,SE,125,0.0,1.0,96,0.00,,,0.32,Wunderground v.1.15,2013-02-22 13:05:00,
2013-02-22 08:10:00,36.6,35.6,30.23,NNE,30,0.0,0.0,96,0.00,,,0.32,Wunderground v.1.15,2013-02-22 13:10:00,
2013-02-22 08:15:00,36.4,35.4,30.23,NNE,30,1.0,1.0,96,0.00,,,0.32,Wunderground v.1.15,2013-02-22 13:15:00,
2013-02-22 08:20:00,36.2,35.2,30.22,NNE,29,0.0,1.0,96,0.00,,,0.32,Wunderground v.1.15,2013-02-22 13:20:00,
2013-02-22 08:25:00,36.2,35.2,30.22,NNE,30,0.0,2.0,96,0.00,,,0.32,Wunderground v.1.15,2013-02-22 13:25:00,
2013-02-22 08:31:00,36.2,35.2,30.22,NNE,29,0.0,0.0,96,0.00,,,0.32,Wunderground v.1.15,2013-02-22 13:31:00,
2013-02-22 08:36:00,36.2,35.2,30.23,NNE,29,0.0,1.0,96,0.00,,,0.32,Wunderground v.1.15,2013-02-22 13:36:00,
2013-02-22 08:41:00,36.4,35.4,30.23,NE,35,1.0,1.0,96,0.00,,,0.32,Wunderground v.1.15,2013-02-22 13:41:00,
2013-02-22 08:46:00,36.2,35.2,30.23,NE,35,0.0,1.0,96,0.00,,,0.32,Wunderground v.1.15,2013-02-22 13:46:00,
2013-02-22 08:51:00,36.2,35.2,30.23,NE,42,0.0,3.0,96,0.00,,,0.32,Wunderground v.1.15,2013-02-22 13:51:00,
2013-02-22 08:56:00,36.3,35.3,30.23,NE,41,0.0,3.0,96,0.00,,,0.32,Wunderground v.1.15,2013-02-22 13:56:00,
2013-02-22 09:01:00,36.3,35.3,30.23,NE,42,0.0,1.0,96,0.00,,,0.32,Wunderground v.1.15,2013-02-22 14:01:00,
2013-02-22 09:06:00,36.3,35.3,30.23,NE,37,0.0,2.0,96,0.00,,,0.32,Wunderground v.1.15,2013-02-22 14:06:00,
2013-02-22 09:11:00,36.2,35.2,30.23,East,88,0.0,0.0,96,0.00,,,0.32,Wunderground v.1.15,2013-02-22 14:11:00,
2013-02-22 09:16:00,36.3,35.3,30.23,ENE,74,0.0,1.0,96,0.00,,,0.32,Wunderground v.1.15,2013-02-22 14:16:00,
2013-02-22 09:21:00,36.3,35.3,30.23,ENE,74,1.0,1.0,96,0.00,,,0.32,Wunderground v.1.15,2013-02-22 14:21:00,
2013-02-22 09:26:00,36.3,35.3,30.23,ENE,74,0.0,2.0,96,0.00,,,0.32,Wunderground v.1.15,2013-02-22 14:26:00,
2013-02-22 09:31:00,36.2,35.2,30.22,ENE,74,1.0,1.0,96,0.00,,,0.32,Wunderground v.1.15,2013-02-22 14:31:00,
2013-02-22 09:36:00,36.2,35.2,30.23,ENE,74,1.0,1.0,96,0.00,,,0.32,Wunderground v.1.15,2013-02-22 14:36:00,
2013-02-22 09:41:00,36.3,35.3,30.23,ENE,74,0.0,0.0,96,0.00,,,0.32,Wunderground v.1.15,2013-02-22 14:41:00,
2013-02-22 09:46:00,36.5,35.5,30.23,ENE,74,0.0,2.0,96,0.00,,,0.32,Wunderground v.1.15,2013-02-22 14:46:00,
2013-02-22 09:51:00,36.5,35.5,30.23,ENE,74,0.0,3.0,96,0.00,,,0.32,Wunderground v.1.15,2013-02-22 14:51:00,
2013-02-22 09:56:00,36.5,35.5,30.23,ENE,74,0.0,3.0,96,0.00,,,0.32,Wunderground v.1.15,2013-02-22 14:56:00,
2013-02-22 10:01:00,36.7,35.7,30.24,ENE,74,0.0,0.0,96,0.00,,,0.32,Wunderground v.1.15,2013-02-22 15:01:00,
2013-02-22 10:07:00,36.7,35.7,30.24,ENE,74,0.0,1.0,96,0.00,,,0.32,Wunderground v.1.15,2013-02-22 15:07:00,
2013-02-22 10:12:00,36.7,35.7,30.24,ENE,74,0.0,0.0,96,0.00,,,0.32,Wunderground v.1.15,2013-02-22 15:12:00,
2013-02-22 10:17:00,37.0,36.0,30.24,ENE,74,0.0,0.0,96,0.00,,,0.32,Wunderground v.1.15,2013-02-22 15:17:00,
2013-02-22 10:22:00,37.0,36.0,30.24,ENE,74,0.0,1.0,96,0.00,,,0.32,Wunderground v.1.15,2013-02-22 15:22:00,
2013-02-22 10:27:00,37.0,36.0,30.24,ESE,112,3.0,3.0,96,0.00,,,0.32,Wunderground v.1.15,2013-02-22 15:27:00,
2013-02-22 10:32:00,36.8,35.8,30.23,ESE,123,1.0,3.0,96,0.00,,,0.32,Wunderground v.1.15,2013-02-22 15:32:00,
2013-02-22 10:37:00,36.7,35.7,30.23,ESE,115,0.0,3.0,96,0.00,,,0.32,Wunderground v.1.15,2013-02-22 15:37:00,
2013-02-22 10:42:00,36.7,35.7,30.23,ESE,115,1.0,3.0,96,0.00,,,0.32,Wunderground v.1.15,2013-02-22 15:42:00,
2013-02-22 10:47:00,36.8,35.8,30.23,ESE,114,0.0,3.0,96,0.00,,,0.32,Wunderground v.1.15,2013-02-22 15:47:00,
2013-02-22 10:52:00,36.8,35.8,30.23,ESE,115,2.0,2.0,96,0.00,,,0.32,Wunderground v.1.15,2013-02-22 15:52:00,
2013-02-22 10:57:00,36.9,35.9,30.23,ESE,114,1.0,2.0,96,0.00,,,0.32,Wunderground v.1.15,2013-02-22 15:57:00,
2013-02-22 11:02:00,36.9,35.9,30.23,East,87,2.0,3.0,96,0.00,,,0.32,Wunderground v.1.15,2013-02-22 16:02:00,
2013-02-22 11:07:00,36.9,35.9,30.23,East,87,0.0,3.0,96,0.00,,,0.32,Wunderground v.1.15,2013-02-22 16:07:00,
2013-02-22 11:12:00,36.8,35.8,30.24,East,87,0.0,2.0,96,0.00,,,0.32,Wunderground v.1.15,2013-02-22 16:12:00,
2013-02-22 11:17:00,36.9,35.9,30.23,East,88,0.0,2.0,96,0.00,,,0.32,Wunderground v.1.15,2013-02-22 16:17:00,
2013-02-22 11:22:00,37.1,36.1,30.24,East,99,0.0,3.0,96,0.00,,,0.32,Wunderground v.1.15,2013-02-22 16:22:00,
2013-02-22 11:27:00,37.3,36.3,30.23,East,99,0.0,3.0,96,0.00,,,0.32,Wunderground v.1.15,2013-02-22 16:27:00,
2013-02-22 11:33:00,37.2,36.2,30.23,East,90,1.0,4.0,96,0.00,,,-99.99,WeatherLink 6.0.0,2013-02-22 16:33:00,
2013-02-22 11:38:00,37.4,36.4,30.23,ESE,117,3.0,4.0,96,0.00,,,0.32,Wunderground v.1.15,2013-02-22 16:38:00,
2013-02-22 11:43:00,37.3,36.3,30.23,ESE,115,0.0,3.0,96,0.00,,,0.32,Wunderground v.1.15,2013-02-22 16:43:00,
2013-02-22 11:48:00,37.6,36.6,30.23,ESE,114,0.0,3.0,96,0.00,,,0.32,Wunderground v.1.15,2013-02-22 16:48:00,
2013-02-22 11:53:00,37.7,36.7,30.23,ESE,115,0.0,3.0,96,0.00,,,0.32,Wunderground v.1.15,2013-02-22 16:53:00,
2013-02-22 11:58:00,37.7,36.7,30.22,ESE,115,2.0,4.0,96,0.00,,,0.32,Wunderground v.1.15,2013-02-22 16:58:00,
2013-02-22 12:03:00,37.7,36.4,30.22,ESE,115,1.0,2.0,95,0.00,,,0.32,Wunderground v.1.15,2013-02-22 17:03:00,
2013-02-22 12:08:00,37.9,36.6,30.23,ESE,114,0.0,2.0,95,0.00,,,0.32,Wunderground v.1.15,2013-02-22 17:08:00,
2013-02-22 12:13:00,38.0,36.7,30.22,ESE,113,0.0,1.0,95,0.00,,,0.32,Wunderground v.1.15,2013-02-22 17:13:00,
2013-02-22 12:18:00,38.3,37.0,30.21,ESE,113,0.0,3.0,95,0.00,,,0.32,Wunderground v.1.15,2013-02-22 17:18:00,
2013-02-22 12:23:00,38.5,37.2,30.21,ESE,107,2.0,3.0,95,0.00,,,0.32,Wunderground v.1.15,2013-02-22 17:23:00,
2013-02-22 12:28:00,38.7,37.4,30.20,ESE,107,1.0,3.0,95,0.00,,,0.32,Wunderground v.1.15,2013-02-22 17:28:00,
2013-02-22 12:33:00,38.7,37.1,30.20,ESE,107,2.0,2.0,94,0.00,,,0.32,Wunderground v.1.15,2013-02-22 17:33:00,
2013-02-22 12:38:00,38.5,36.9,30.20,ESE,107,0.0,2.0,94,0.00,,,0.32,Wunderground v.1.15,2013-02-22 17:38:00,
2013-02-22 12:43:00,38.7,37.1,30.19,ESE,108,0.0,3.0,94,0.00,,,0.32,Wunderground v.1.15,2013-02-22 17:43:00,
2013-02-22 12:48:00,38.7,37.1,30.19,ESE,107,0.0,3.0,94,0.00,,,0.32,Wunderground v.1.15,2013-02-22 17:48:00,
2013-02-22 12:53:00,38.7,36.9,30.19,ESE,107,0.0,2.0,93,0.00,,,0.32,Wunderground v.1.15,2013-02-22 17:53:00,
2013-02-22 12:58:00,38.8,36.9,30.18,ESE,107,0.0,3.0,93,0.00,,,0.32,Wunderground v.1.15,2013-02-22 17:58:00,
2013-02-22 13:03:00,38.8,36.9,30.18,ESE,112,1.0,3.0,93,0.00,,,-99.99,WeatherLink 6.0.0,2013-02-22 18:03:00,
2013-02-22 13:08:00,39.0,37.1,30.18,ESE,107,0.0,3.0,93,0.00,,,0.32,Wunderground v.1.15,2013-02-22 18:08:00,
2013-02-22 13:13:00,39.2,37.6,30.19,ESE,107,0.0,2.0,94,0.00,,,0.32,Wunderground v.1.15,2013-02-22 18:13:00,
2013-02-22 13:18:00,39.0,37.1,30.17,NE,44,0.0,3.0,93,0.00,,,0.32,Wunderground v.1.15,2013-02-22 18:18:00,
2013-02-22 13:23:00,38.8,36.9,30.17,NE,42,0.0,3.0,93,0.00,,,0.32,Wunderground v.1.15,2013-02-22 18:23:00,
2013-02-22 13:28:00,38.7,36.9,30.17,NNE,12,4.0,4.0,93,0.00,,,0.32,Wunderground v.1.15,2013-02-22 18:28:00,
2013-02-22 13:33:00,38.5,36.9,30.17,ENE,65,0.0,3.0,94,0.00,,,0.32,Wunderground v.1.15,2013-02-22 18:33:00,
2013-02-22 13:39:00,38.5,36.9,30.17,ENE,61,0.0,3.0,94,0.00,,,0.32,Wunderground v.1.15,2013-02-22 18:39:00,
2013-02-22 13:44:00,38.5,36.9,30.17,East,86,1.0,5.0,94,0.00,,,0.33,Wunderground v.1.15,2013-02-22 18:44:00,
2013-02-22 13:49:00,38.4,37.1,30.17,East,86,1.0,5.0,95,0.00,,,0.33,Wunderground v.1.15,2013-02-22 18:49:00,
2013-02-22 13:54:00,38.5,37.2,30.17,East,86,1.0,2.0,95,0.00,,,0.33,Wunderground v.1.15,2013-02-22 18:54:00,
2013-02-22 13:59:00,38.5,37.2,30.16,East,90,0.0,2.0,95,0.00,,,0.33,Wunderground v.1.15,2013-02-22 18:59:00,
2013-02-22 14:04:00,38.5,37.2,30.16,East,90,0.0,2.0,95,0.00,,,0.33,Wunderground v.1.15,2013-02-22 19:04:00,
2013-02-22 14:09:00,38.6,37.3,30.17,ESE,106,0.0,5.0,95,0.00,,,0.33,Wunderground v.1.15,2013-02-22 19:09:00,
2013-02-22 14:14:00,38.9,37.6,30.17,ESE,106,0.0,1.0,95,0.00,,,0.33,Wunderground v.1.15,2013-02-22 19:14:00,
2013-02-22 14:19:00,38.9,37.6,30.16,ESE,106,0.0,0.0,95,0.00,,,0.33,Wunderground v.1.15,2013-02-22 19:19:00,
2013-02-22 14:24:00,38.9,37.6,30.16,ESE,115,0.0,4.0,95,0.00,,,0.33,Wunderground v.1.15,2013-02-22 19:24:00,
2013-02-22 14:29:00,38.7,37.4,30.16,East,96,0.0,1.0,95,0.00,,,0.33,Wunderground v.1.15,2013-02-22 19:29:00,
2013-02-22 14:34:00,38.7,37.4,30.16,SE,146,0.0,4.0,95,0.00,,,0.33,Wunderground v.1.15,2013-02-22 19:34:00,
2013-02-22 14:39:00,38.6,37.3,30.16,ESE,123,0.0,1.0,95,0.00,,,0.33,Wunderground v.1.15,2013-02-22 19:39:00,
2013-02-22 14:44:00,38.5,37.2,30.15,ESE,121,2.0,5.0,95,0.00,,,0.33,Wunderground v.1.15,2013-02-22 19:44:00,
2013-02-22 14:49:00,38.3,37.0,30.17,ESE,121,0.0,1.0,95,0.00,,,0.33,Wunderground v.1.15,2013-02-22 19:49:00,
2013-02-22 14:54:00,38.4,37.1,30.17,ESE,121,0.0,2.0,95,0.00,,,0.33,Wunderground v.1.15,2013-02-22 19:54:00,
2013-02-22 14:59:00,38.6,37.3,30.16,ESE,121,0.0,0.0,95,0.00,,,0.33,Wunderground v.1.15,2013-02-22 19:59:00,
2013-02-22 15:04:00,38.7,37.4,30.16,ESE,121,0.0,1.0,95,0.00,,,0.33,Wunderground v.1.15,2013-02-22 20:04:00,
2013-02-22 15:09:00,38.7,37.4,30.16,ESE,121,0.0,0.0,95,0.00,,,0.33,Wunderground v.1.15,2013-02-22 20:09:00,
2013-02-22 15:14:00,38.8,37.5,30.16,ESE,121,0.0,1.0,95,0.00,,,0.33,Wunderground v.1.15,2013-02-22 20:14:00,
2013-02-22 15:19:00,38.8,37.8,30.16,ESE,121,0.0,0.0,96,0.00,,,0.33,Wunderground v.1.15,2013-02-22 20:19:00,
2013-02-22 15:24:00,38.8,37.8,30.16,ESE,121,1.0,2.0,96,0.00,,,0.33,Wunderground v.1.15,2013-02-22 20:24:00,
2013-02-22 15:29:00,38.7,37.4,30.15,ESE,121,0.0,0.0,95,0.00,,,0.33,Wunderground v.1.15,2013-02-22 20:29:00,
2013-02-22 15:34:00,38.6,37.3,30.15,ESE,121,0.0,2.0,95,0.00,,,0.34,Wunderground v.1.15,2013-02-22 20:34:00,
2013-02-22 15:39:00,38.6,37.6,30.15,ESE,121,0.0,0.0,96,0.00,,,0.34,Wunderground v.1.15,2013-02-22 20:39:00,
2013-02-22 15:45:00,38.7,37.7,30.15,ESE,121,2.0,3.0,96,0.00,,,0.34,Wunderground v.1.15,2013-02-22 20:45:00,
2013-02-22 15:50:00,38.6,37.6,30.15,East,99,0.0,1.0,96,0.00,,,0.34,Wunderground v.1.15,2013-02-22 20:50:00,
2013-02-22 15:55:00,38.5,37.5,30.15,East,99,0.0,1.0,96,0.00,,,0.34,Wunderground v.1.15,2013-02-22 20:55:00,
2013-02-22 16:00:00,38.4,37.4,30.15,East,98,0.0,1.0,96,0.00,,,0.34,Wunderground v.1.15,2013-02-22 21:00:00,
2013-02-22 16:05:00,38.4,37.4,30.16,East,98,0.0,1.0,96,0.00,,,0.34,Wunderground v.1.15,2013-02-22 21:05:00,
2013-02-22 16:10:00,38.5,37.5,30.16,East,98,0.0,0.0,96,0.00,,,0.34,Wunderground v.1.15,2013-02-22 21:10:00,
2013-02-22 16:15:00,38.6,37.6,30.16,East,98,0.0,0.0,96,0.00,,,0.34,Wunderground v.1.15,2013-02-22 21:15:00,
2013-02-22 16:20:00,38.9,37.9,30.16,East,98,0.0,0.0,96,0.00,,,0.34,Wunderground v.1.15,2013-02-22 21:20:00,
2013-02-22 16:25:00,38.7,37.7,30.16,ESE,121,0.0,3.0,96,0.00,,,0.34,Wunderground v.1.15,2013-02-22 21:25:00,
2013-02-22 16:30:00,38.6,37.6,30.15,ESE,117,1.0,3.0,96,0.00,,,0.34,Wunderground v.1.15,2013-02-22 21:30:00,
2013-02-22 16:35:00,38.4,37.4,30.14,SE,128,0.0,4.0,96,0.00,,,0.34,Wunderground v.1.15,2013-02-22 21:35:00,
2013-02-22 16:40:00,38.3,37.3,30.14,ESE,111,6.0,6.0,96,0.00,,,0.34,Wunderground v.1.15,2013-02-22 21:40:00,
2013-02-22 16:45:00,38.3,37.3,30.15,ESE,109,0.0,6.0,96,0.00,,,0.34,Wunderground v.1.15,2013-02-22 21:45:00,
2013-02-22 16:50:00,38.3,37.3,30.15,ESE,109,0.0,1.0,96,0.00,,,0.34,Wunderground v.1.15,2013-02-22 21:50:00,
2013-02-22 16:55:00,38.4,37.4,30.15,ESE,109,0.0,1.0,96,0.00,,,0.34,Wunderground v.1.15,2013-02-22 21:55:00,
2013-02-22 17:00:00,38.4,37.4,30.15,ESE,109,1.0,2.0,96,0.00,,,0.34,Wunderground v.1.15,2013-02-22 22:00:00,
2013-02-22 17:05:00,38.3,37.3,30.15,ESE,109,0.0,2.0,96,0.00,,,0.34,Wunderground v.1.15,2013-02-22 22:05:00,
2013-02-22 17:10:00,38.2,37.2,30.14,ESE,109,0.0,1.0,96,0.00,,,0.34,Wunderground v.1.15,2013-02-22 22:10:00,
2013-02-22 17:15:00,38.2,37.2,30.13,ESE,122,0.0,4.0,96,0.00,,,0.34,Wunderground v.1.15,2013-02-22 22:15:00,
2013-02-22 17:21:00,38.1,37.1,30.14,ESE,103,0.0,1.0,96,0.00,,,0.34,Wunderground v.1.15,2013-02-22 22:21:00,
2013-02-22 17:26:00,38.0,37.0,30.14,ESE,103,0.0,2.0,96,0.00,,,0.34,Wunderground v.1.15,2013-02-22 22:26:00,
2013-02-22 17:30:00,38.0,37.0,30.13,ESE,112,1.0,4.0,96,0.00,,,-99.99,WeatherLink 6.0.0,2013-02-22 22:30:00,
2013-02-22 17:31:00,38.1,37.1,30.13,ESE,111,0.0,4.0,96,0.00,,,0.34,Wunderground v.1.15,2013-02-22 22:31:00,
2013-02-22 17:36:00,38.0,37.0,30.13,ESE,114,2.0,4.0,96,0.00,,,0.34,Wunderground v.1.15,2013-02-22 22:36:00,
2013-02-22 17:41:00,38.0,37.0,30.13,SE,132,0.0,2.0,96,0.00,,,0.34,Wunderground v.1.15,2013-02-22 22:41:00,
2013-02-22 17:46:00,38.0,37.0,30.12,SE,132,0.0,3.0,96,0.00,,,0.34,Wunderground v.1.15,2013-02-22 22:46:00,
2013-02-22 17:51:00,38.0,37.2,30.13,East,86,2.0,3.0,97,0.00,,,0.34,Wunderground v.1.15,2013-02-22 22:51:00,
2013-02-22 17:56:00,37.8,36.8,30.12,SE,128,2.0,8.0,96,0.00,,,0.34,Wunderground v.1.15,2013-02-22 22:56:00,
2013-02-22 18:01:00,37.6,36.6,30.13,ESE,111,0.0,3.0,96,0.00,,,0.34,Wunderground v.1.15,2013-02-22 23:01:00,
2013-02-22 18:06:00,37.5,36.5,30.14,ESE,110,0.0,3.0,96,0.00,,,0.34,Wunderground v.1.15,2013-02-22 23:06:00,
2013-02-22 18:11:00,37.5,36.5,30.14,ESE,118,0.0,0.0,96,0.00,,,0.34,Wunderground v.1.15,2013-02-22 23:11:00,
2013-02-22 18:16:00,37.6,36.8,30.14,ESE,118,1.0,1.0,97,0.00,,,0.34,Wunderground v.1.15,2013-02-22 23:16:00,
2013-02-22 18:21:00,37.6,36.8,30.14,ESE,118,1.0,1.0,97,0.00,,,0.34,Wunderground v.1.15,2013-02-22 23:21:00,
2013-02-22 18:26:00,37.6,36.8,30.14,ESE,118,0.0,2.0,97,0.00,,,0.34,Wunderground v.1.15,2013-02-22 23:26:00,
2013-02-22 18:30:00,37.5,36.5,30.14,ESE,112,0.0,3.0,96,0.00,,,-99.99,WeatherLink 6.0.0,2013-02-22 23:30:00,
2013-02-22 18:31:00,37.5,36.5,30.14,East,96,1.0,1.0,96,0.00,,,0.34,Wunderground v.1.15,2013-02-22 23:31:00,
2013-02-22 18:36:00,37.3,36.3,30.14,East,94,0.0,2.0,96,0.00,,,0.34,Wunderground v.1.15,2013-02-22 23:36:00,
2013-02-22 18:41:00,37.3,36.3,30.14,East,86,3.0,3.0,96,0.00,,,0.34,Wunderground v.1.15,2013-02-22 23:41:00,
2013-02-22 18:46:00,37.3,36.5,30.14,ESE,117,0.0,4.0,97,0.00,,,0.34,Wunderground v.1.15,2013-02-22 23:46:00,
2013-02-22 18:51:00,37.2,36.4,30.14,ESE,113,2.0,2.0,97,0.00,,,0.34,Wunderground v.1.15,2013-02-22 23:51:00,
2013-02-22 18:56:00,37.1,36.3,30.14,ESE,113,0.0,2.0,97,0.00,,,0.34,Wunderground v.1.15,2013-02-22 23:56:00,
2013-02-22 19:01:00,37.1,36.3,30.14,ESE,113,0.0,1.0,97,0.00,,,0.34,Wunderground v.1.15,2013-02-23 00:01:00,
2013-02-22 19:06:00,37.1,36.1,30.14,ESE,113,0.0,3.0,96,0.00,,,0.34,Wunderground v.1.15,2013-02-23 00:06:00,
2013-02-22 19:11:00,37.0,36.2,30.14,ESE,113,0.0,2.0,97,0.00,,,0.34,Wunderground v.1.15,2013-02-23 00:11:00,
2013-02-22 19:16:00,37.0,36.2,30.14,ESE,113,0.0,3.0,97,0.00,,,0.34,Wunderground v.1.15,2013-02-23 00:16:00,
2013-02-22 19:21:00,37.0,36.2,30.14,ESE,113,1.0,2.0,97,0.00,,,0.34,Wunderground v.1.15,2013-02-23 00:21:00,
2013-02-22 19:26:00,37.0,36.2,30.13,ESE,113,1.0,2.0,97,0.00,,,0.34,Wunderground v.1.15,2013-02-23 00:26:00,
2013-02-22 19:31:00,36.9,36.1,30.13,East,97,2.0,4.0,97,0.00,,,0.34,Wunderground v.1.15,2013-02-23 00:31:00,
2013-02-22 19:36:00,36.9,36.1,30.14,East,98,0.0,4.0,97,0.00,,,0.34,Wunderground v.1.15,2013-02-23 00:36:00,
2013-02-22 19:41:00,37.0,36.2,30.13,East,98,0.0,1.0,97,0.00,,,0.35,Wunderground v.1.15,2013-02-23 00:41:00,
2013-02-22 19:46:00,36.9,36.1,30.13,East,98,0.0,3.0,97,0.00,,,0.35,Wunderground v.1.15,2013-02-23 00:46:00,
2013-02-22 19:51:00,36.9,36.1,30.13,East,98,1.0,3.0,97,0.00,,,0.35,Wunderground v.1.15,2013-02-23 00:51:00,
2013-02-22 19:56:00,36.9,36.1,30.14,ESE,117,1.0,3.0,97,0.00,,,0.35,Wunderground v.1.15,2013-02-23 00:56:00,
2013-02-22 20:01:00,36.9,36.1,30.14,ESE,117,0.0,1.0,97,0.00,,,0.35,Wunderground v.1.15,2013-02-23 01:01:00,
2013-02-22 20:06:00,37.0,36.2,30.14,ESE,117,0.0,1.0,97,0.00,,,0.35,Wunderground v.1.15,2013-02-23 01:06:00,
2013-02-22 20:11:00,36.9,36.1,30.14,ESE,117,0.0,0.0,97,0.00,,,0.35,Wunderground v.1.15,2013-02-23 01:11:00,
2013-02-22 20:17:00,36.8,36.0,30.14,ESE,117,2.0,2.0,97,0.00,,,0.35,Wunderground v.1.15,2013-02-23 01:17:00,
2013-02-22 20:22:00,36.7,35.9,30.15,ESE,117,0.0,1.0,97,0.00,,,0.35,Wunderground v.1.15,2013-02-23 01:22:00,
2013-02-22 20:27:00,36.7,35.9,30.15,ESE,117,0.0,1.0,97,0.00,,,0.35,Wunderground v.1.15,2013-02-23 01:27:00,
2013-02-22 20:32:00,36.6,35.8,30.15,East,88,1.0,2.0,97,0.00,,,0.35,Wunderground v.1.15,2013-02-23 01:32:00,
2013-02-22 20:37:00,36.6,35.8,30.14,East,88,1.0,2.0,97,0.00,,,0.35,Wunderground v.1.15,2013-02-23 01:37:00,
2013-02-22 20:42:00,36.5,35.7,30.15,East,88,2.0,3.0,97,0.00,,,0.35,Wunderground v.1.15,2013-02-23 01:42:00,
2013-02-22 20:47:00,36.5,35.7,30.15,ESE,111,0.0,3.0,97,0.00,,,0.35,Wunderground v.1.15,2013-02-23 01:47:00,
2013-02-22 20:52:00,36.5,35.7,30.15,ESE,103,0.0,2.0,97,0.00,,,0.35,Wunderground v.1.15,2013-02-23 01:52:00,
2013-02-22 20:57:00,36.5,35.7,30.15,ESE,103,0.0,2.0,97,0.00,,,0.35,Wunderground v.1.15,2013-02-23 01:57:00,
2013-02-22 21:02:00,36.5,35.7,30.15,ESE,103,1.0,3.0,97,0.00,,,0.35,Wunderground v.1.15,2013-02-23 02:02:00,
2013-02-22 21:07:00,36.5,35.7,30.15,ESE,107,2.0,3.0,97,0.00,,,0.35,Wunderground v.1.15,2013-02-23 02:07:00,
2013-02-22 21:12:00,36.4,35.6,30.14,ESE,107,0.0,2.0,97,0.00,,,0.35,Wunderground v.1.15,2013-02-23 02:12:00,
2013-02-22 21:17:00,36.4,35.6,30.14,ESE,103,3.0,5.0,97,0.00,,,0.35,Wunderground v.1.15,2013-02-23 02:17:00,
2013-02-22 21:22:00,36.4,35.6,30.14,East,91,0.0,3.0,97,0.00,,,0.35,Wunderground v.1.15,2013-02-23 02:22:00,
2013-02-22 21:27:00,36.3,35.5,30.15,SSE,167,0.0,3.0,97,0.00,,,0.35,Wunderground v.1.15,2013-02-23 02:27:00,
2013-02-22 21:30:00,36.3,35.5,30.15,ESE,112,1.0,5.0,97,0.00,,,-99.99,WeatherLink 6.0.0,2013-02-23 02:30:00,
2013-02-22 21:32:00,36.3,35.5,30.15,ESE,108,0.0,1.0,97,0.00,,,0.35,Wunderground v.1.15,2013-02-23 02:32:00,
2013-02-22 21:37:00,36.3,35.5,30.15,East,101,1.0,2.0,97,0.00,,,0.35,Wunderground v.1.15,2013-02-23 02:37:00,
2013-02-22 21:42:00,36.2,35.4,30.15,ESE,123,2.0,5.0,97,0.00,,,0.35,Wunderground v.1.15,2013-02-23 02:42:00,
2013-02-22 21:47:00,36.2,35.4,30.15,ESE,123,0.0,5.0,97,0.00,,,0.35,Wunderground v.1.15,2013-02-23 02:47:00,
2013-02-22 21:52:00,36.1,35.3,30.15,ESE,102,1.0,2.0,97,0.00,,,0.35,Wunderground v.1.15,2013-02-23 02:52:00,
2013-02-22 21:57:00,36.2,35.4,30.15,ESE,103,1.0,2.0,97,0.00,,,0.35,Wunderground v.1.15,2013-02-23 02:57:00,
2013-02-22 22:02:00,36.1,35.3,30.15,ESE,103,0.0,1.0,97,0.00,,,0.35,Wunderground v.1.15,2013-02-23 03:02:00,
2013-02-22 22:07:00,36.1,35.3,30.14,ESE,102,0.0,2.0,97,0.00,,,0.35,Wunderground v.1.15,2013-02-23 03:07:00,
2013-02-22 22:12:00,36.1,35.3,30.14,ESE,103,0.0,2.0,97,0.00,,,0.35,Wunderground v.1.15,2013-02-23 03:12:00,
2013-02-22 22:17:00,36.2,35.4,30.14,ESE,103,0.0,2.0,97,0.00,,,0.35,Wunderground v.1.15,2013-02-23 03:17:00,
2013-02-22 22:22:00,36.2,35.4,30.14,ESE,103,0.0,3.0,97,0.00,,,0.35,Wunderground v.1.15,2013-02-23 03:22:00,
2013-02-22 22:27:00,36.1,35.3,30.14,ESE,102,0.0,3.0,97,0.00,,,0.35,Wunderground v.1.15,2013-02-23 03:27:00,
2013-02-22 22:32:00,36.1,35.3,30.14,ESE,103,0.0,1.0,97,0.00,,,0.35,Wunderground v.1.15,2013-02-23 03:32:00,
2013-02-22 22:37:00,36.2,35.4,30.13,ESE,103,0.0,1.0,97,0.00,,,0.35,Wunderground v.1.15,2013-02-23 03:37:00,
2013-02-22 22:42:00,36.1,35.3,30.12,ESE,102,2.0,3.0,97,0.00,,,0.35,Wunderground v.1.15,2013-02-23 03:42:00,
2013-02-22 22:47:00,36.0,35.2,30.11,East,101,1.0,3.0,97,0.00,,,0.35,Wunderground v.1.15,2013-02-23 03:47:00,
2013-02-22 22:52:00,36.0,35.2,30.11,East,101,1.0,1.0,97,0.00,,,0.35,Wunderground v.1.15,2013-02-23 03:52:00,
2013-02-22 22:57:00,36.0,35.2,30.11,NNE,26,1.0,3.0,97,0.00,,,0.35,Wunderground v.1.15,2013-02-23 03:57:00,
2013-02-22 23:02:00,36.1,35.3,30.11,NNE,24,2.0,2.0,97,0.00,,,0.35,Wunderground v.1.15,2013-02-23 04:02:00,
2013-02-22 23:07:00,36.0,35.2,30.11,NNE,22,0.0,2.0,97,0.00,,,0.35,Wunderground v.1.15,2013-02-23 04:07:00,
2013-02-22 23:12:00,36.0,35.2,30.10,ENE,68,0.0,1.0,97,0.00,,,0.35,Wunderground v.1.15,2013-02-23 04:12:00,
2013-02-22 23:17:00,36.0,35.2,30.11,ESE,102,0.0,3.0,97,0.00,,,0.35,Wunderground v.1.15,2013-02-23 04:17:00,
2013-02-22 23:22:00,35.9,35.1,30.11,ESE,102,0.0,0.0,97,0.00,,,0.35,Wunderground v.1.15,2013-02-23 04:22:00,
2013-02-22 23:27:00,35.9,35.1,30.11,ESE,102,0.0,1.0,97,0.00,,,0.35,Wunderground v.1.15,2013-02-23 04:27:00,
2013-02-22 23:33:00,36.0,35.2,30.11,NNE,22,0.0,3.0,97,0.00,,,-99.99,WeatherLink 6.0.0,2013-02-23 04:33:00,
2013-02-22 23:38:00,36.0,35.2,30.10,ESE,102,0.0,1.0,97,0.00,,,0.35,Wunderground v.1.15,2013-02-23 04:38:00,
2013-02-22 23:43:00,35.9,35.1,30.10,ESE,102,0.0,3.0,97,0.00,,,0.35,Wunderground v.1.15,2013-02-23 04:43:00,
2013-02-22 23:48:00,35.9,35.1,30.10,ESE,102,1.0,3.0,97,0.00,,,0.35,Wunderground v.1.15,2013-02-23 04:48:00,
2013-02-22 23:53:00,35.8,35.0,30.11,ESE,102,0.0,0.0,97,0.00,,,0.35,Wunderground v.1.15,2013-02-23 04:53:00,
2013-02-22 23:58:00,35.9,35.1,30.11,ESE,102,0.0,0.0,97,0.00,,,0.35,Wunderground v.1.15,2013-02-23 04:58:00,